createdAt,value
2023-04-26T06:37:48.185Z,73.83
2023-04-26T06:37:59.043Z,74.44
2023-04-26T06:38:07.169Z,74.64
2023-04-26T06:38:17.374Z,74.33
2023-04-26T06:38:27.386Z,73.63
2023-04-26T06:38:37.553Z,73.32
2023-04-26T06:38:58.364Z,74.54
2023-04-26T06:39:07.932Z,75.15
2023-04-26T06:39:17.963Z,75.31
2023-04-26T06:39:28.189Z,75.11
2023-04-26T06:39:38.341Z,75.42
2023-04-26T06:39:48.249Z,75.82
2023-04-26T06:39:58.473Z,75.21
2023-04-26T06:40:08.585Z,74.30
2023-04-26T06:40:18.809Z,74.30
2023-04-26T06:40:28.846Z,74.51
2023-04-26T06:40:39.098Z,74.37
2023-04-26T06:40:49.128Z,74.07
2023-04-26T06:40:59.322Z,74.07
2023-04-26T06:41:09.299Z,74.67
2023-04-26T06:41:19.460Z,74.27
2023-04-26T06:41:29.539Z,73.93
2023-04-26T06:41:39.772Z,73.93
2023-04-26T06:41:51.931Z,73.72
2023-04-26T06:41:59.994Z,72.72
2023-04-26T06:42:10.091Z,72.11
2023-04-26T06:42:20.227Z,72.01
2023-04-26T06:42:30.476Z,71.80
2023-04-26T06:42:40.396Z,71.50
2023-04-26T06:42:50.605Z,71.70
2023-04-26T06:43:00.578Z,71.80
2023-04-26T06:43:10.776Z,71.70
2023-04-26T06:43:20.948Z,72.38
2023-04-26T06:43:31.000Z,73.22
2023-04-26T06:43:41.089Z,73.69
2023-04-26T06:43:51.339Z,72.68
2023-04-26T06:44:01.338Z,72.08
2023-04-26T06:44:11.375Z,71.77
2023-04-26T06:44:21.711Z,71.57
2023-04-26T06:44:31.630Z,72.48
2023-04-26T06:44:41.795Z,73.08
2023-04-26T06:44:51.921Z,73.08
2023-04-26T06:45:02.081Z,72.88
2023-04-26T06:45:12.148Z,72.17
2023-04-26T06:45:22.250Z,71.57
2023-04-26T06:45:32.288Z,71.67
2023-04-26T06:45:43.521Z,71.97
2023-04-26T06:45:52.592Z,73.19
2023-04-26T06:46:02.669Z,73.39
2023-04-26T06:46:12.741Z,73.19
2023-04-26T06:46:22.947Z,73.28
2023-04-26T06:46:33.203Z,72.38
2023-04-26T06:46:43.418Z,71.77
2023-04-26T06:46:53.235Z,71.26
2023-04-26T06:47:03.401Z,71.50
2023-04-26T06:47:13.497Z,71.40
2023-04-26T06:47:23.705Z,72.11
2023-04-26T06:47:33.765Z,72.31
2023-04-26T06:47:43.952Z,72.31
2023-04-26T06:47:54.162Z,72.11
2023-04-26T06:48:04.227Z,72.51
2023-04-26T06:48:14.280Z,73.32
2023-04-26T06:48:24.385Z,74.23
2023-04-26T06:48:35.423Z,74.74
2023-04-26T06:48:44.739Z,75.34
2023-04-26T06:48:54.783Z,75.45
2023-04-26T06:49:04.990Z,75.85
2023-04-26T06:49:15.936Z,76.15
2023-04-26T06:49:25.333Z,75.45
2023-04-26T06:49:45.626Z,75.14
2023-04-26T06:49:55.606Z,75.34
2023-04-26T06:50:05.817Z,75.18
2023-04-26T06:50:15.763Z,76.09
2023-04-26T06:50:25.962Z,76.19
2023-04-26T06:50:36.059Z,75.68
2023-04-26T06:50:46.347Z,76.03
2023-04-26T06:50:56.444Z,76.63
2023-04-26T06:51:06.516Z,76.63
2023-04-26T06:51:16.678Z,77.64
2023-04-26T06:51:26.838Z,77.64
2023-04-26T06:51:36.945Z,77.88
2023-04-26T06:51:47.256Z,77.68
2023-04-26T06:51:57.340Z,77.37
2023-04-26T06:52:09.324Z,77.68
2023-04-26T06:52:17.518Z,78.73
2023-04-26T06:52:27.860Z,79.74
2023-04-26T06:52:38.275Z,79.85
2023-04-26T06:52:47.840Z,79.13
2023-04-26T06:52:58.036Z,79.03
2023-04-26T06:53:08.249Z,79.58
2023-04-26T06:53:18.333Z,79.98
2023-04-26T06:53:28.478Z,81.20
2023-04-26T06:53:38.528Z,81.40
2023-04-26T06:53:48.697Z,81.40
2023-04-26T06:53:58.660Z,81.40
2023-04-26T06:54:09.012Z,80.90
2023-04-26T06:54:19.049Z,80.79
2023-04-26T06:54:29.103Z,81.50
2023-04-26T06:54:46.266Z,81.71
2023-04-26T06:54:57.525Z,80.83
2023-04-26T06:55:03.779Z,81.64
2023-04-26T06:55:14.396Z,80.93
2023-04-26T06:55:23.992Z,80.53
2023-04-26T06:55:34.276Z,80.43
2023-04-26T06:55:44.420Z,80.73
2023-04-26T06:56:04.523Z,80.22
2023-04-26T06:56:14.781Z,80.53
2023-04-26T06:56:24.804Z,81.24
2023-04-26T06:56:34.892Z,81.44
2023-04-26T06:56:45.108Z,82.29
2023-04-26T06:56:55.967Z,81.88
2023-04-26T06:57:05.255Z,82.09
2023-04-26T06:57:15.504Z,82.19
2023-04-26T06:57:25.637Z,83.10
2023-04-26T06:57:36.439Z,83.81
2023-04-26T06:57:45.913Z,83.81
2023-04-26T06:57:56.030Z,84.83
2023-04-26T06:58:06.072Z,85.13
2023-04-26T06:58:16.807Z,85.13
2023-04-26T06:58:26.388Z,85.44
2023-04-26T06:58:36.569Z,85.53
2023-04-26T06:58:46.622Z,85.53
2023-04-26T06:58:56.786Z,85.84
2023-04-26T06:59:06.877Z,86.21
2023-04-26T06:59:17.347Z,86.21
2023-04-26T06:59:27.069Z,86.05
2023-04-26T06:59:37.247Z,86.21
2023-04-26T06:59:47.260Z,85.80
2023-04-26T06:59:57.400Z,85.39
2023-04-26T07:00:07.514Z,85.09
2023-04-26T07:00:17.849Z,85.19
2023-04-26T07:00:27.798Z,85.19
2023-04-26T07:00:37.969Z,85.30
2023-04-26T07:00:47.933Z,85.50
2023-04-26T07:00:58.211Z,85.80
2023-04-26T07:01:08.322Z,85.90
2023-04-26T07:01:18.457Z,86.21
2023-04-26T07:01:28.549Z,86.61
2023-04-26T07:01:38.684Z,86.68
2023-04-26T07:01:49.044Z,85.46
2023-04-26T07:01:58.852Z,84.14
2023-04-26T07:02:09.149Z,84.34
2023-04-26T07:02:19.308Z,83.83
2023-04-26T07:02:29.410Z,83.53
2023-04-26T07:02:39.787Z,83.53
2023-04-26T07:02:49.412Z,83.73
2023-04-26T07:02:59.770Z,84.55
2023-04-26T07:03:09.870Z,85.56
2023-04-26T07:03:20.199Z,85.56
2023-04-26T07:03:30.013Z,85.56
2023-04-26T07:03:40.171Z,84.55
2023-04-26T07:03:50.262Z,84.24
2023-04-26T07:04:00.392Z,84.34
2023-04-26T07:04:10.581Z,83.43
2023-04-26T07:04:20.738Z,83.33
2023-04-26T07:04:30.948Z,83.03
2023-04-26T07:04:41.095Z,82.42
2023-04-26T07:04:50.951Z,82.52
2023-04-26T07:05:02.111Z,82.42
2023-04-26T07:05:11.338Z,82.62
2023-04-26T07:05:21.462Z,83.33
2023-04-26T07:05:31.363Z,83.73
2023-04-26T07:05:41.524Z,84.04
2023-04-26T07:05:51.496Z,84.34
2023-04-26T07:06:11.721Z,84.44
2023-04-26T07:06:21.917Z,84.14
2023-04-26T07:06:32.020Z,83.73
2023-04-26T07:06:42.283Z,83.49
2023-04-26T07:06:52.250Z,83.69
2023-04-26T07:07:02.364Z,84.00
2023-04-26T07:07:13.612Z,84.00
2023-04-26T07:07:22.720Z,83.18
2023-04-26T07:07:32.821Z,82.62
2023-04-26T07:07:42.970Z,82.52
2023-04-26T07:07:53.109Z,82.42
2023-04-26T07:08:03.142Z,82.42
2023-04-26T07:08:13.379Z,82.42
2023-04-26T07:08:23.367Z,82.31
2023-04-26T07:08:33.526Z,82.01
2023-04-26T07:08:43.636Z,81.60
2023-04-26T07:08:54.050Z,81.60
2023-04-26T07:09:03.866Z,83.23
2023-04-26T07:09:14.048Z,84.55
2023-04-26T07:09:24.088Z,84.55
2023-04-26T07:09:34.331Z,85.30
2023-04-26T07:09:44.444Z,85.50
2023-04-26T07:09:54.568Z,85.80
2023-04-26T07:10:04.612Z,85.30
2023-04-26T07:10:14.733Z,84.99
2023-04-26T07:10:24.966Z,84.28
2023-04-26T07:10:35.032Z,84.28
2023-04-26T07:10:45.143Z,83.57
2023-04-26T07:10:55.212Z,82.96
2023-04-26T07:11:05.323Z,83.06
2023-04-26T07:11:15.430Z,83.37
2023-04-26T07:11:26.259Z,83.87
2023-04-26T07:11:35.711Z,83.67
2023-04-26T07:11:45.742Z,83.77
2023-04-26T07:11:56.032Z,84.28
2023-04-26T07:12:06.060Z,85.39
2023-04-26T07:12:16.154Z,84.89
2023-04-26T07:12:26.233Z,85.60
2023-04-26T07:12:36.408Z,85.90
2023-04-26T07:12:46.445Z,86.10
2023-04-26T07:12:56.575Z,86.51
2023-04-26T07:13:08.194Z,86.61
2023-04-26T07:13:16.935Z,87.02
2023-04-26T07:13:26.836Z,87.32
2023-04-26T07:13:36.977Z,86.61
2023-04-26T07:13:49.975Z,86.61
2023-04-26T07:13:57.545Z,87.22
2023-04-26T07:14:07.474Z,86.21
2023-04-26T07:14:17.572Z,84.58
2023-04-26T07:14:27.590Z,84.48
2023-04-26T07:14:39.323Z,84.69
2023-04-26T07:14:47.804Z,84.28
2023-04-26T07:14:58.005Z,83.98
2023-04-26T07:15:08.079Z,82.96
2023-04-26T07:15:18.129Z,82.96
2023-04-26T07:15:28.192Z,83.47
2023-04-26T07:15:38.401Z,83.77
2023-04-26T07:15:48.421Z,84.18
2023-04-26T07:15:58.577Z,85.19
2023-04-26T07:16:08.605Z,86.10
2023-04-26T07:16:18.821Z,85.50
2023-04-26T07:16:28.859Z,85.70
2023-04-26T07:16:39.067Z,86.51
2023-04-26T07:16:49.103Z,86.41
2023-04-26T07:16:59.325Z,85.70
2023-04-26T07:17:09.412Z,85.70
2023-04-26T07:17:19.561Z,86.10
2023-04-26T07:17:29.753Z,85.09
2023-04-26T07:17:39.738Z,84.99
2023-04-26T07:17:49.816Z,85.09
2023-04-26T07:18:00.069Z,85.50
2023-04-26T07:18:10.118Z,85.60
2023-04-26T07:18:20.376Z,86.00
2023-04-26T07:18:30.358Z,85.50
2023-04-26T07:18:40.516Z,85.30
2023-04-26T07:18:50.520Z,86.10
2023-04-26T07:19:00.836Z,85.86
2023-04-26T07:19:10.938Z,85.76
2023-04-26T07:19:21.056Z,85.96
2023-04-26T07:19:31.182Z,85.96
2023-04-26T07:19:41.532Z,84.85
2023-04-26T07:19:51.513Z,84.64
2023-04-26T07:20:01.570Z,84.44
2023-04-26T07:20:11.780Z,84.34
2023-04-26T07:20:21.876Z,84.04
2023-04-26T07:20:31.905Z,84.24
2023-04-26T07:20:42.073Z,84.75
2023-04-26T07:20:52.272Z,84.04
2023-04-26T07:21:02.312Z,83.83
2023-04-26T07:21:12.373Z,84.34
2023-04-26T07:21:22.827Z,84.34
2023-04-26T07:21:32.776Z,84.04
2023-04-26T07:21:42.877Z,84.24
2023-04-26T07:21:53.018Z,84.14
2023-04-26T07:22:03.063Z,84.14
2023-04-26T07:22:13.329Z,83.83
2023-04-26T07:22:23.428Z,83.83
2023-04-26T07:22:33.410Z,84.34
2023-04-26T07:22:43.604Z,84.34
2023-04-26T07:22:53.598Z,83.73
2023-04-26T07:23:03.771Z,84.44
2023-04-26T07:23:13.751Z,84.14
2023-04-26T07:23:24.095Z,83.63
2023-04-26T07:23:34.082Z,83.73
2023-04-26T07:23:44.202Z,83.73
2023-04-26T07:23:54.463Z,83.83
2023-04-26T07:24:04.419Z,83.43
2023-04-26T07:24:14.477Z,82.92
2023-04-26T07:24:24.709Z,83.73
2023-04-26T07:24:34.753Z,83.12
2023-04-26T07:24:45.028Z,83.12
2023-04-26T07:24:55.818Z,83.12
2023-04-26T07:25:05.312Z,82.52
2023-04-26T07:25:15.220Z,82.72
2023-04-26T07:25:25.481Z,82.52
2023-04-26T07:25:35.497Z,83.23
2023-04-26T07:25:45.784Z,83.94
2023-04-26T07:25:57.600Z,83.63
2023-04-26T07:26:06.108Z,83.23
2023-04-26T07:26:16.102Z,83.12
2023-04-26T07:26:26.538Z,83.23
2023-04-26T07:26:37.252Z,83.43
2023-04-26T07:26:46.556Z,83.33
2023-04-26T07:26:56.715Z,83.53
2023-04-26T07:27:06.776Z,83.23
2023-04-26T07:27:16.954Z,82.21
2023-04-26T07:27:27.011Z,81.81
2023-04-26T07:27:47.401Z,81.20
2023-04-26T07:27:57.381Z,81.71
2023-04-26T07:28:07.539Z,82.42
2023-04-26T07:28:17.602Z,82.82
2023-04-26T07:28:27.778Z,83.12
2023-04-26T07:28:37.902Z,83.43
2023-04-26T07:28:47.942Z,83.63
2023-04-26T07:28:58.058Z,83.83
2023-04-26T07:29:08.300Z,83.63
2023-04-26T07:29:18.331Z,83.33
2023-04-26T07:29:28.486Z,83.23
2023-04-26T07:29:38.527Z,82.21
2023-04-26T07:29:48.698Z,81.46
2023-04-26T07:29:58.846Z,81.67
2023-04-26T07:30:09.077Z,82.07
2023-04-26T07:30:19.154Z,81.77
2023-04-26T07:30:29.423Z,82.17
2023-04-26T07:30:39.387Z,82.68
